createdAt,value
2018-12-25T00:02:14.866Z,13.20
2018-12-25T00:05:03.162Z,12.77
2018-12-25T00:07:51.961Z,13.07
2018-12-25T00:10:40.537Z,11.27
2018-12-25T00:13:28.916Z,12.57
2018-12-25T00:16:17.015Z,13.80
2018-12-25T00:19:06.245Z,15.47
2018-12-25T00:21:54.459Z,15.10
2018-12-25T00:24:43.010Z,15.27
2018-12-25T00:27:31.341Z,13.43
2018-12-25T00:30:19.431Z,12.17
2018-12-25T00:33:08.429Z,12.87
2018-12-25T00:35:56.258Z,13.47
2018-12-25T00:38:45.086Z,14.57
2018-12-25T00:41:33.931Z,14.70
2018-12-25T00:44:22.045Z,17.10
2018-12-25T00:47:10.934Z,15.23
2018-12-25T00:49:59.499Z,15.97
2018-12-25T00:52:47.619Z,13.30
2018-12-25T00:55:35.847Z,13.70
2018-12-25T00:58:23.941Z,12.30
2018-12-25T01:01:12.605Z,16.67
2018-12-25T01:04:01.219Z,12.23
2018-12-25T01:06:49.539Z,11.77
2018-12-25T01:09:37.739Z,13.60
2018-12-25T01:12:26.034Z,13.10
2018-12-25T01:15:14.581Z,11.07
2018-12-25T01:18:02.794Z,13.27
2018-12-25T01:20:51.276Z,12.10
2018-12-25T01:23:39.716Z,14.53
2018-12-25T01:26:28.176Z,15.90
2018-12-25T01:29:16.880Z,14.73
2018-12-25T01:32:05.585Z,16.70
2018-12-25T01:34:53.850Z,15.80
2018-12-25T01:37:41.940Z,12.53
2018-12-25T01:40:30.995Z,15.60
2018-12-25T01:43:20.049Z,12.80
2018-12-25T01:46:08.442Z,13.53
2018-12-25T01:48:56.583Z,13.63
2018-12-25T01:51:44.850Z,12.80
2018-12-25T01:54:33.118Z,12.23
2018-12-25T01:57:21.377Z,11.47
2018-12-25T02:00:10.618Z,12.37
2018-12-25T02:02:59.717Z,12.53
2018-12-25T02:05:51.894Z,12.67
2018-12-25T02:08:40.169Z,12.83
2018-12-25T02:11:28.932Z,13.13
2018-12-25T02:14:17.785Z,14.43
2018-12-25T02:17:06.370Z,12.87
2018-12-25T02:19:58.267Z,11.63
2018-12-25T02:22:46.560Z,13.90
2018-12-25T02:25:38.452Z,13.97
2018-12-25T02:28:26.980Z,14.83
2018-12-25T02:31:16.070Z,14.67
2018-12-25T02:34:04.547Z,13.13
2018-12-25T02:36:53.374Z,13.93
2018-12-25T02:39:41.585Z,13.13
2018-12-25T02:42:31.951Z,15.73
2018-12-25T02:45:20.463Z,13.77
2018-12-25T02:48:08.892Z,14.17
2018-12-25T02:50:57.113Z,15.87
2018-12-25T02:53:45.239Z,13.60
2018-12-25T02:56:33.756Z,14.53
2018-12-25T02:59:25.227Z,13.83
2018-12-25T03:02:13.134Z,14.57
2018-12-25T03:05:01.371Z,14.50
2018-12-25T03:07:49.645Z,14.60
2018-12-25T03:10:38.173Z,13.87
2018-12-25T03:13:26.753Z,15.13
2018-12-25T03:16:15.224Z,16.03
2018-12-25T03:19:04.407Z,16.37
2018-12-25T03:21:52.808Z,15.00
2018-12-25T03:24:40.991Z,16.53
2018-12-25T03:27:29.606Z,15.67
2018-12-25T03:30:18.235Z,19.07
2018-12-25T03:33:06.948Z,15.67
2018-12-25T03:35:55.426Z,16.77
2018-12-25T03:38:43.671Z,16.73
2018-12-25T03:41:31.784Z,15.90
2018-12-25T03:44:20.950Z,17.03
2018-12-25T03:47:09.376Z,17.47
2018-12-25T03:49:58.008Z,18.07
2018-12-25T03:52:46.482Z,16.07
2018-12-25T03:55:34.835Z,19.77
2018-12-25T03:58:23.155Z,19.40
2018-12-25T04:01:11.357Z,18.80
2018-12-25T04:04:00.391Z,18.87
2018-12-25T04:06:49.037Z,17.97
2018-12-25T04:09:37.845Z,22.23
2018-12-25T04:12:26.325Z,21.40
2018-12-25T04:15:14.706Z,20.63
2018-12-25T04:18:04.181Z,19.20
2018-12-25T04:20:53.001Z,20.30
2018-12-25T04:23:41.064Z,19.63
2018-12-25T04:26:29.654Z,23.67
2018-12-25T04:29:18.119Z,20.97
2018-12-25T04:32:06.664Z,21.23
2018-12-25T04:34:54.784Z,21.93
2018-12-25T04:37:42.788Z,23.07
2018-12-25T04:40:31.355Z,25.23
2018-12-25T04:43:19.753Z,26.97
2018-12-25T04:46:08.730Z,27.10
2018-12-25T04:48:56.983Z,32.33
2018-12-25T04:51:48.958Z,35.33
2018-12-25T04:54:37.176Z,36.03
2018-12-25T04:57:26.504Z,33.03
2018-12-25T05:00:14.978Z,26.90
2018-12-25T05:03:06.092Z,55.50
2018-12-25T05:05:54.754Z,32.73
2018-12-25T05:08:44.113Z,33.03
2018-12-25T05:11:32.233Z,55.30
2018-12-25T05:14:20.538Z,42.50
2018-12-25T05:17:09.307Z,47.33
2018-12-25T05:19:58.112Z,38.03
2018-12-25T05:22:46.491Z,45.90
2018-12-25T05:25:34.842Z,40.60
2018-12-25T05:28:23.754Z,48.60
2018-12-25T05:31:12.074Z,35.87
2018-12-25T05:34:00.480Z,43.10
2018-12-25T05:36:48.968Z,52.43
2018-12-25T05:39:37.362Z,42.93
2018-12-25T05:42:26.135Z,43.47
2018-12-25T05:45:14.626Z,34.37
2018-12-25T05:48:03.910Z,35.87
2018-12-25T05:50:53.010Z,36.83
2018-12-25T05:53:41.123Z,33.60
2018-12-25T05:56:29.237Z,32.83
2018-12-25T05:59:18.184Z,25.80
2018-12-25T06:02:06.224Z,27.27
2018-12-25T06:04:54.414Z,34.50
2018-12-25T06:07:42.734Z,27.97
2018-12-25T06:10:31.236Z,28.67
2018-12-25T06:13:19.692Z,29.60
2018-12-25T06:16:08.038Z,27.03
2018-12-25T06:18:57.186Z,24.60
2018-12-25T06:21:45.587Z,27.23
2018-12-25T06:24:34.389Z,26.40
2018-12-25T06:27:23.241Z,24.03
2018-12-25T06:30:11.989Z,25.43
2018-12-25T06:33:00.450Z,25.47
2018-12-25T06:35:48.695Z,25.40
2018-12-25T06:38:38.583Z,27.17
2018-12-25T06:41:26.771Z,26.67
2018-12-25T06:44:15.237Z,23.27
2018-12-25T06:47:03.425Z,24.63
2018-12-25T06:49:52.101Z,20.70
2018-12-25T06:52:40.901Z,28.57
2018-12-25T06:55:29.615Z,24.83
2018-12-25T06:58:21.055Z,23.73
2018-12-25T07:01:09.254Z,23.53
2018-12-25T07:03:57.413Z,21.83
2018-12-25T07:06:45.784Z,26.10
2018-12-25T07:09:33.915Z,21.67
2018-12-25T07:12:21.968Z,38.07
2018-12-25T07:15:10.342Z,31.37
2018-12-25T07:17:59.118Z,32.17
2018-12-25T07:20:47.457Z,27.43
2018-12-25T07:23:35.537Z,30.17
2018-12-25T07:26:23.770Z,26.57
2018-12-25T07:29:11.941Z,28.03
2018-12-25T07:32:00.238Z,28.73
2018-12-25T07:34:48.493Z,25.13
2018-12-25T07:37:36.663Z,32.07
2018-12-25T07:40:24.584Z,27.97
2018-12-25T07:43:12.637Z,33.50
2018-12-25T07:46:00.721Z,38.77
2018-12-25T07:48:48.925Z,26.63
2018-12-25T07:51:37.851Z,32.77
2018-12-25T08:00:56.544Z,25.27
2018-12-25T08:03:08.874Z,33.97
2018-12-25T08:05:57.098Z,39.67
2018-12-25T08:08:45.160Z,34.93
2018-12-25T08:11:33.305Z,29.87
2018-12-25T08:14:21.465Z,29.87
2018-12-25T08:17:09.723Z,27.87
2018-12-25T08:19:58.310Z,29.77
2018-12-25T08:22:46.698Z,27.53
2018-12-25T08:25:34.929Z,25.80
2018-12-25T08:28:23.203Z,27.20
2018-12-25T08:31:11.507Z,23.80
2018-12-25T08:34:18.834Z,25.63
2018-12-25T08:37:07.274Z,27.17
2018-12-25T08:39:54.978Z,26.80
2018-12-25T08:42:43.241Z,27.20
2018-12-25T08:45:31.378Z,25.90
2018-12-25T08:48:19.764Z,25.30
2018-12-25T08:51:07.826Z,27.43
2018-12-25T08:53:55.874Z,24.87
2018-12-25T08:56:46.791Z,25.47
2018-12-25T08:59:35.406Z,23.93
2018-12-25T09:02:23.885Z,22.77
2018-12-25T09:05:11.898Z,25.37
2018-12-25T09:08:00.300Z,23.93
2018-12-25T09:10:48.725Z,20.90
2018-12-25T09:13:37.375Z,22.00
2018-12-25T09:16:25.625Z,24.10
2018-12-25T09:19:13.582Z,23.60
2018-12-25T09:22:01.678Z,22.50
2018-12-25T09:24:49.811Z,21.43
2018-12-25T09:27:38.286Z,20.23
2018-12-25T09:30:26.528Z,20.83
2018-12-25T09:33:14.582Z,18.47
2018-12-25T09:36:02.954Z,20.53
2018-12-25T09:38:51.180Z,21.03
2018-12-25T09:41:39.641Z,19.53
2018-12-25T09:44:27.661Z,20.87
2018-12-25T09:47:16.016Z,18.50
2018-12-25T09:50:04.207Z,20.00
2018-12-25T09:52:52.315Z,20.20
2018-12-25T09:55:40.689Z,17.70
2018-12-25T09:58:28.870Z,19.07
2018-12-25T10:01:19.016Z,18.87
2018-12-25T10:04:16.853Z,17.77
2018-12-25T10:07:23.228Z,17.60
2018-12-25T10:10:11.322Z,18.63
2018-12-25T10:13:18.573Z,17.60
2018-12-25T10:16:07.381Z,19.10
2018-12-25T10:18:55.695Z,17.20
2018-12-25T10:21:44.326Z,17.57
2018-12-25T10:24:32.358Z,18.43
2018-12-25T10:27:49.826Z,18.57
2018-12-25T10:31:39.620Z,17.17
2018-12-25T10:35:24.733Z,17.23
2018-12-25T10:39:10.625Z,15.63
2018-12-25T10:42:12.252Z,20.67
2018-12-25T10:45:00.795Z,18.97
2018-12-25T10:47:49.468Z,20.53
2018-12-25T10:50:37.915Z,20.80
2018-12-25T10:53:26.173Z,22.87
2018-12-25T10:56:14.287Z,21.30
2018-12-25T10:59:02.608Z,22.93
2018-12-25T11:01:50.818Z,23.93
2018-12-25T11:04:39.476Z,21.63
2018-12-25T11:07:27.379Z,23.33
2018-12-25T11:10:16.016Z,22.90
2018-12-25T11:13:07.799Z,21.80
2018-12-25T11:15:56.698Z,23.00
2018-12-25T11:18:49.161Z,21.20
2018-12-25T11:21:36.729Z,19.83
2018-12-25T11:24:25.615Z,22.77
2018-12-25T11:27:14.423Z,21.53
2018-12-25T11:30:03.891Z,20.67
2018-12-25T11:32:52.751Z,18.83
2018-12-25T11:35:41.778Z,18.60
2018-12-25T11:38:30.185Z,19.37
2018-12-25T11:41:18.805Z,20.90
2018-12-25T11:44:08.536Z,24.80
2018-12-25T11:46:57.166Z,24.97
2018-12-25T11:49:46.466Z,27.07
2018-12-25T11:52:35.076Z,25.77
2018-12-25T11:55:23.257Z,26.63
2018-12-25T11:58:12.245Z,26.67
2018-12-25T12:01:01.385Z,25.27
2018-12-25T12:03:50.341Z,28.17
2018-12-25T12:06:39.327Z,25.97
2018-12-25T12:09:28.319Z,27.77
2018-12-25T12:12:17.209Z,24.83
2018-12-25T12:15:07.378Z,25.33
2018-12-25T12:17:56.424Z,24.77
2018-12-25T12:20:45.240Z,22.70
2018-12-25T12:23:34.242Z,21.23
2018-12-25T12:26:25.470Z,24.33
2018-12-25T12:29:14.064Z,22.87
2018-12-25T12:32:02.689Z,21.67
2018-12-25T12:34:51.519Z,22.83
2018-12-25T12:37:43.337Z,20.87
2018-12-25T12:40:31.909Z,21.60
2018-12-25T12:43:20.552Z,21.27
2018-12-25T12:46:09.597Z,21.87
2018-12-25T12:49:01.431Z,21.03
2018-12-25T12:51:50.806Z,22.80
2018-12-25T12:54:39.756Z,21.57
2018-12-25T12:57:28.824Z,22.97
2018-12-25T13:00:19.390Z,23.10
2018-12-25T13:03:07.985Z,22.57
2018-12-25T13:05:56.207Z,25.80
2018-12-25T13:08:45.126Z,24.53
2018-12-25T13:11:33.584Z,26.47
2018-12-25T13:14:21.969Z,27.67
2018-12-25T13:17:11.533Z,23.10
2018-12-25T13:20:00.493Z,24.47
2018-12-25T13:22:54.025Z,23.73
2018-12-25T13:25:38.879Z,23.53
2018-12-25T13:28:26.984Z,21.73
2018-12-25T13:31:15.121Z,25.87
2018-12-25T13:34:03.325Z,22.80
2018-12-25T13:36:52.360Z,22.97
2018-12-25T13:39:40.662Z,27.07
2018-12-25T13:42:28.938Z,27.73
2018-12-25T13:45:16.889Z,27.07
2018-12-25T13:48:05.788Z,27.37
2018-12-25T13:50:54.166Z,23.73
2018-12-25T13:54:02.363Z,24.63
2018-12-25T13:56:52.120Z,24.37
2018-12-25T13:59:40.673Z,22.60
2018-12-25T14:02:29.602Z,25.77
2018-12-25T14:05:17.716Z,26.77
2018-12-25T14:08:06.288Z,27.00
2018-12-25T14:10:54.667Z,27.70
2018-12-25T14:13:43.175Z,23.80
2018-12-25T14:16:31.315Z,27.37
2018-12-25T14:19:19.978Z,29.03
2018-12-25T14:22:08.471Z,30.17
2018-12-25T14:24:57.162Z,27.40
2018-12-25T14:27:46.189Z,30.97
2018-12-25T14:30:35.319Z,30.97
2018-12-25T14:33:24.313Z,31.37
2018-12-25T14:36:16.488Z,29.03
2018-12-25T14:39:07.579Z,30.67
2018-12-25T14:41:57.039Z,30.97
2018-12-25T14:44:50.959Z,31.57
2018-12-25T14:47:42.284Z,29.80
2018-12-25T14:50:33.832Z,34.27
2018-12-25T14:53:23.201Z,31.80
2018-12-25T14:56:11.786Z,35.93
2018-12-25T14:59:02.221Z,35.50
2018-12-25T15:01:51.501Z,37.17
2018-12-25T15:04:39.851Z,33.30
2018-12-25T15:07:28.688Z,34.20
2018-12-25T15:10:17.098Z,33.93
2018-12-25T15:13:05.025Z,37.37
2018-12-25T15:15:55.351Z,31.70
2018-12-25T15:18:42.964Z,32.20
2018-12-25T15:21:31.296Z,30.93
2018-12-25T15:24:20.096Z,30.97
2018-12-25T15:27:08.698Z,35.77
2018-12-25T15:29:57.252Z,33.27
2018-12-25T15:32:45.839Z,37.03
2018-12-25T15:35:34.434Z,34.50
2018-12-25T15:38:23.433Z,34.43
2018-12-25T15:41:11.727Z,33.60
2018-12-25T15:44:00.840Z,36.23
2018-12-25T15:46:49.408Z,32.03
2018-12-25T15:49:37.646Z,40.43
2018-12-25T15:52:25.699Z,38.10
2018-12-25T15:55:14.599Z,37.87
2018-12-25T15:58:03.009Z,38.73
2018-12-25T16:00:51.890Z,40.27
2018-12-25T16:03:40.249Z,40.63
2018-12-25T16:06:28.542Z,36.80
2018-12-25T16:09:16.754Z,38.53
2018-12-25T16:12:05.290Z,40.90
2018-12-25T16:14:53.535Z,43.37
2018-12-25T16:17:41.491Z,40.60
2018-12-25T16:20:29.477Z,43.70
2018-12-25T16:23:17.637Z,41.77
2018-12-25T16:26:05.605Z,39.07
2018-12-25T16:28:53.634Z,39.83
2018-12-25T16:31:41.884Z,45.53
2018-12-25T16:34:30.634Z,35.83
2018-12-25T16:37:18.688Z,37.80
2018-12-25T16:40:08.374Z,38.20
2018-12-25T16:42:59.373Z,35.93
2018-12-25T16:45:47.409Z,34.50
2018-12-25T16:48:35.917Z,37.50
2018-12-25T16:51:24.037Z,34.67
2018-12-25T16:54:12.209Z,33.10
2018-12-25T16:57:00.495Z,32.63
2018-12-25T16:59:48.509Z,31.23
2018-12-25T17:02:36.700Z,32.20
2018-12-25T17:05:24.910Z,31.33
2018-12-25T17:08:13.305Z,30.53
2018-12-25T17:11:01.604Z,30.17
2018-12-25T17:13:49.699Z,31.33
2018-12-25T17:16:38.136Z,28.70
2018-12-25T17:19:26.201Z,31.83
2018-12-25T17:22:14.626Z,27.50
2018-12-25T17:25:03.259Z,28.87
2018-12-25T17:27:51.628Z,25.33
2018-12-25T17:30:39.351Z,26.23
2018-12-25T17:33:27.810Z,25.67
2018-12-25T17:36:16.197Z,24.73
2018-12-25T17:39:06.011Z,25.87
2018-12-25T17:41:54.849Z,23.97
2018-12-25T17:44:42.969Z,23.87
2018-12-25T17:47:31.155Z,23.43
2018-12-25T17:50:19.845Z,22.77
2018-12-25T17:53:08.068Z,23.27
2018-12-25T17:55:56.270Z,24.67
2018-12-25T17:58:44.584Z,21.13
2018-12-25T18:01:33.480Z,26.23
2018-12-25T18:04:22.346Z,23.43
2018-12-25T18:07:12.051Z,27.87
2018-12-25T18:10:02.105Z,26.27
2018-12-25T18:12:51.994Z,24.37
2018-12-25T18:15:40.657Z,22.97
2018-12-25T18:18:30.990Z,21.40
2018-12-25T18:21:20.663Z,22.57
2018-12-25T18:24:10.016Z,20.67
2018-12-25T18:27:01.638Z,22.53
2018-12-25T18:29:58.736Z,23.37
2018-12-25T18:32:57.259Z,24.27
2018-12-25T18:35:47.444Z,23.17
2018-12-25T18:38:36.237Z,24.50
2018-12-25T18:41:25.740Z,19.83
2018-12-25T18:44:14.106Z,20.83
2018-12-25T18:47:04.229Z,16.67
2018-12-25T18:49:57.229Z,17.27
2018-12-25T18:52:45.492Z,17.00
2018-12-25T18:55:33.907Z,20.90
2018-12-25T18:58:23.589Z,20.23
2018-12-25T19:01:12.032Z,20.93
2018-12-25T19:04:02.032Z,21.63
2018-12-25T19:06:53.758Z,21.77
2018-12-25T19:09:42.058Z,20.53
2018-12-25T19:12:30.172Z,21.10
2018-12-25T19:15:25.961Z,24.50
2018-12-25T19:18:15.031Z,24.20
2018-12-25T19:21:03.210Z,27.47
2018-12-25T19:23:59.792Z,18.87
2018-12-25T19:26:48.609Z,25.77
2018-12-25T19:29:37.099Z,24.97
2018-12-25T19:32:25.604Z,20.93
2018-12-25T19:35:14.085Z,21.40
2018-12-25T19:38:02.818Z,26.60
2018-12-25T19:40:50.772Z,24.93
2018-12-25T19:43:38.980Z,22.57
2018-12-25T19:46:27.672Z,21.37
2018-12-25T19:49:16.026Z,22.93
2018-12-25T19:52:05.053Z,24.80
2018-12-25T19:54:53.562Z,23.43
2018-12-25T19:57:41.870Z,23.90
2018-12-25T20:00:30.275Z,20.80
2018-12-25T20:03:30.420Z,23.23
2018-12-25T20:07:15.297Z,23.43
2018-12-25T20:10:32.910Z,21.40
2018-12-25T20:13:59.975Z,22.07
2018-12-25T20:17:34.396Z,20.97
2018-12-25T20:20:55.048Z,23.80
2018-12-25T20:24:26.029Z,24.87
2018-12-25T20:27:48.148Z,25.57
2018-12-25T20:31:17.562Z,25.13
2018-12-25T20:34:38.161Z,25.80
2018-12-25T20:38:02.681Z,34.43
2018-12-25T20:41:24.309Z,35.27
2018-12-25T20:44:46.773Z,29.73
2018-12-25T20:48:12.279Z,27.27
2018-12-25T20:51:43.200Z,22.37
2018-12-25T20:55:17.208Z,21.00
2018-12-25T20:58:51.330Z,19.20
2018-12-25T21:02:07.983Z,20.50
2018-12-25T21:05:43.239Z,19.57
2018-12-25T21:09:18.365Z,21.70
2018-12-25T21:12:43.655Z,22.20
2018-12-25T21:16:12.123Z,22.10
2018-12-25T21:19:53.512Z,25.10
2018-12-25T21:23:17.319Z,21.20
2018-12-25T21:26:41.529Z,21.53
2018-12-25T21:29:30.579Z,22.70
2018-12-25T21:32:19.661Z,25.77
2018-12-25T21:35:27.528Z,22.20
2018-12-25T21:38:18.310Z,19.87
2018-12-25T21:41:08.210Z,22.93
2018-12-25T21:43:57.150Z,20.90
2018-12-25T21:46:45.741Z,22.90
2018-12-25T21:49:34.429Z,21.53
2018-12-25T21:52:23.351Z,24.70
2018-12-25T21:55:18.505Z,24.90
2018-12-25T21:58:02.819Z,25.57
2018-12-25T22:00:51.698Z,25.27
2018-12-25T22:03:40.428Z,25.07
2018-12-25T22:06:30.752Z,23.37
2018-12-25T22:09:19.343Z,26.97
2018-12-25T22:12:07.570Z,26.10
2018-12-25T22:14:55.833Z,23.83
2018-12-25T22:17:44.646Z,27.10
2018-12-25T22:20:35.928Z,26.00
2018-12-25T22:23:24.538Z,28.00
2018-12-25T22:26:12.954Z,24.47
2018-12-25T22:29:01.524Z,29.03
2018-12-25T22:31:49.594Z,27.37
2018-12-25T22:34:37.746Z,27.80
2018-12-25T22:37:26.868Z,28.67
2018-12-25T22:40:15.583Z,29.93
2018-12-25T22:43:03.718Z,28.73
2018-12-25T22:45:52.251Z,28.43
2018-12-25T22:48:40.412Z,30.63
2018-12-25T22:51:28.784Z,32.03
2018-12-25T22:54:17.234Z,26.33
2018-12-25T22:57:05.516Z,31.40
2018-12-25T22:59:53.702Z,30.57
2018-12-25T23:02:43.069Z,30.33
2018-12-25T23:05:31.332Z,29.57
2018-12-25T23:08:19.925Z,32.53
2018-12-25T23:11:07.821Z,36.97
2018-12-25T23:13:56.501Z,33.87
2018-12-25T23:16:45.026Z,33.30
2018-12-25T23:19:33.483Z,37.13
2018-12-25T23:22:21.998Z,35.13
2018-12-25T23:25:10.201Z,35.83
2018-12-25T23:27:58.448Z,40.40
2018-12-25T23:30:47.380Z,38.67
2018-12-25T23:33:35.820Z,37.40
2018-12-25T23:36:24.991Z,38.50
2018-12-25T23:39:14.848Z,36.70
2018-12-25T23:42:03.113Z,35.20
2018-12-25T23:44:51.475Z,41.00
2018-12-25T23:47:39.230Z,37.20
2018-12-25T23:50:29.687Z,36.30
2018-12-25T23:53:18.047Z,36.57
2018-12-25T23:56:06.644Z,35.63
2018-12-25T23:58:54.833Z,37.20
